SLE2229 DTTA-EPKK
Flight info
| Callsign | SLE2229 |
|---|---|
| Flight time | 2h 20m |
| Altitude | 39000 |
| Route | N0450F380 ICANI2D ICANI UB979 SIRVI M725 XOLTA/N0450390 DCT SPL DCT ELTIB DCT LURID DCT PIDON DCT ETARO DCT BALAP DCT MEBAN |
| Aircraft | A321/M-SDE3FGHIRWY/LB1 |
Departure
| Time | 2026-05-08 10:43 |
|---|---|
| Airport | Tunis Carthage International Airport (DTTA) |
Arrival
| Time | 2026-05-08 13:03 |
|---|---|
| Airport | Kraków John Paul II International Airport (EPKK) |
| Time | Latitude | Longitude | Altitude | Speed | Heading |
|---|---|---|---|---|---|
| 2026-05-08 10:13 | 36.84647 | 10.21999 | 30 ft | 0 kts | 245° |
| 2026-05-08 10:28 | 36.84649 | 10.22006 | 29 ft | 4 kts | 243° |
| 2026-05-08 10:28 | 36.84663 | 10.22035 | 30 ft | 4 kts | 240° |
| 2026-05-08 10:28 | 36.84671 | 10.22063 | 30 ft | 3 kts | 271° |
| 2026-05-08 10:29 | 36.84667 | 10.22095 | 30 ft | 4 kts | 297° |
| 2026-05-08 10:29 | 36.84652 | 10.22115 | 30 ft | 4 kts | 350° |
| 2026-05-08 10:29 | 36.84627 | 10.22113 | 30 ft | 4 kts | 20° |
| 2026-05-08 10:29 | 36.84602 | 10.22100 | 30 ft | 4 kts | 25° |
| 2026-05-08 10:30 | 36.84577 | 10.22087 | 30 ft | 3 kts | 12° |
| 2026-05-08 10:30 | 36.84551 | 10.22080 | 30 ft | 4 kts | 10° |
| 2026-05-08 10:30 | 36.84524 | 10.22075 | 30 ft | 4 kts | 11° |
| 2026-05-08 10:30 | 36.84498 | 10.22067 | 30 ft | 4 kts | 23° |
| 2026-05-08 10:31 | 36.84479 | 10.22053 | 30 ft | 4 kts | 39° |
| 2026-05-08 10:31 | 36.84466 | 10.22038 | 30 ft | 4 kts | 53° |
| 2026-05-08 10:31 | 36.84457 | 10.22022 | 30 ft | 0 kts | 57° |
| 2026-05-08 10:37 | 36.84458 | 10.22023 | 30 ft | 0 kts | 50° |
| 2026-05-08 10:37 | 36.84471 | 10.22046 | 30 ft | 7 kts | 57° |
| 2026-05-08 10:37 | 36.84495 | 10.22134 | 30 ft | 14 kts | 85° |
| 2026-05-08 10:37 | 36.84546 | 10.22256 | 30 ft | 19 kts | 18° |
| 2026-05-08 10:38 | 36.84691 | 10.22313 | 30 ft | 25 kts | 15° |
| 2026-05-08 10:38 | 36.84882 | 10.22365 | 30 ft | 28 kts | 12° |
| 2026-05-08 10:38 | 36.84965 | 10.22476 | 31 ft | 18 kts | 99° |
| 2026-05-08 10:38 | 36.84921 | 10.22623 | 33 ft | 18 kts | 116° |
| 2026-05-08 10:39 | 36.84868 | 10.22768 | 29 ft | 19 kts | 112° |
| 2026-05-08 10:39 | 36.84817 | 10.22930 | 30 ft | 20 kts | 111° |
| 2026-05-08 10:39 | 36.84765 | 10.23096 | 30 ft | 21 kts | 111° |
| 2026-05-08 10:39 | 36.84711 | 10.23267 | 30 ft | 21 kts | 111° |
| 2026-05-08 10:40 | 36.84653 | 10.23439 | 30 ft | 22 kts | 114° |
| 2026-05-08 10:40 | 36.84592 | 10.23613 | 30 ft | 22 kts | 114° |
| 2026-05-08 10:40 | 36.84530 | 10.23790 | 31 ft | 22 kts | 113° |
| 2026-05-08 10:40 | 36.84468 | 10.23971 | 30 ft | 23 kts | 113° |
| 2026-05-08 10:41 | 36.84406 | 10.24156 | 30 ft | 23 kts | 113° |
| 2026-05-08 10:41 | 36.84365 | 10.24349 | 30 ft | 22 kts | 71° |
| 2026-05-08 10:41 | 36.84470 | 10.24475 | 27 ft | 19 kts | 21° |
| 2026-05-08 10:41 | 36.84540 | 10.24410 | 27 ft | 6 kts | 299° |
| 2026-05-08 10:42 | 36.84542 | 10.24406 | 27 ft | 0 kts | 299° |
| 2026-05-08 10:42 | 36.84547 | 10.24395 | 27 ft | 15 kts | 298° |
| 2026-05-08 10:42 | 36.84692 | 10.23985 | 32 ft | 86 kts | 292° |
| 2026-05-08 10:42 | 36.84999 | 10.23043 | 30 ft | 145 kts | 292° |
| 2026-05-08 10:43 | 36.85451 | 10.21703 | 105 ft | 183 kts | 293° |
| 2026-05-08 10:43 | 36.85948 | 10.20301 | 825 ft | 176 kts | 299° |
| 2026-05-08 10:43 | 36.86933 | 10.19357 | 1248 ft | 193 kts | 349° |
| 2026-05-08 10:43 | 36.88337 | 10.19577 | 1473 ft | 222 kts | 29° |
| 2026-05-08 10:44 | 36.89399 | 10.20920 | 2265 ft | 210 kts | 65° |
| 2026-05-08 10:44 | 36.89832 | 10.22584 | 3185 ft | 205 kts | 73° |
| 2026-05-08 10:44 | 36.90294 | 10.24415 | 3396 ft | 228 kts | 73° |
| 2026-05-08 10:44 | 36.90713 | 10.26155 | 4672 ft | 193 kts | 72° |
| 2026-05-08 10:45 | 36.91220 | 10.27850 | 4831 ft | 228 kts | 63° |
| 2026-05-08 10:45 | 36.92141 | 10.29474 | 5485 ft | 221 kts | 42° |
| 2026-05-08 10:45 | 36.93373 | 10.30659 | 5929 ft | 240 kts | 35° |
| 2026-05-08 10:45 | 36.94782 | 10.31996 | 6104 ft | 266 kts | 39° |
| 2026-05-08 10:46 | 36.96209 | 10.33536 | 6626 ft | 275 kts | 41° |
| 2026-05-08 10:46 | 36.97637 | 10.35156 | 7308 ft | 279 kts | 42° |
| 2026-05-08 10:46 | 36.99077 | 10.36804 | 8008 ft | 282 kts | 42° |
| 2026-05-08 10:46 | 37.00537 | 10.38462 | 8702 ft | 285 kts | 41° |
| 2026-05-08 10:47 | 37.02018 | 10.40126 | 9389 ft | 287 kts | 41° |
| 2026-05-08 10:47 | 37.03518 | 10.41798 | 10053 ft | 290 kts | 41° |
| 2026-05-08 10:47 | 37.05068 | 10.43516 | 10377 ft | 308 kts | 41° |
| 2026-05-08 10:47 | 37.06734 | 10.45355 | 10510 ft | 330 kts | 41° |
| 2026-05-08 10:48 | 37.08497 | 10.47301 | 10859 ft | 343 kts | 41° |
| 2026-05-08 10:48 | 37.10299 | 10.49291 | 11437 ft | 348 kts | 41° |
| 2026-05-08 10:48 | 37.12120 | 10.51306 | 12055 ft | 351 kts | 41° |
| 2026-05-08 10:48 | 37.13958 | 10.53341 | 12667 ft | 354 kts | 41° |
| 2026-05-08 10:49 | 37.15811 | 10.55391 | 13268 ft | 357 kts | 41° |
| 2026-05-08 10:49 | 37.17680 | 10.57460 | 13860 ft | 360 kts | 41° |
| 2026-05-08 10:49 | 37.19564 | 10.59549 | 14451 ft | 363 kts | 41° |
| 2026-05-08 10:49 | 37.21467 | 10.61660 | 15037 ft | 366 kts | 41° |
| 2026-05-08 10:50 | 37.23382 | 10.63785 | 15605 ft | 369 kts | 41° |
| 2026-05-08 10:50 | 37.25321 | 10.65921 | 16163 ft | 372 kts | 40° |
| 2026-05-08 10:50 | 37.27289 | 10.68049 | 16709 ft | 375 kts | 40° |
| 2026-05-08 10:50 | 37.29288 | 10.70189 | 17250 ft | 379 kts | 40° |
| 2026-05-08 10:51 | 37.31302 | 10.72336 | 17785 ft | 382 kts | 40° |
| 2026-05-08 10:51 | 37.33332 | 10.74504 | 18296 ft | 384 kts | 40° |
| 2026-05-08 10:51 | 37.35374 | 10.76696 | 18806 ft | 387 kts | 40° |
| 2026-05-08 10:51 | 37.37428 | 10.78909 | 19312 ft | 390 kts | 40° |
| 2026-05-08 10:52 | 37.39494 | 10.81141 | 19815 ft | 393 kts | 40° |
| 2026-05-08 10:52 | 37.41574 | 10.83393 | 20303 ft | 396 kts | 40° |
| 2026-05-08 10:52 | 37.43672 | 10.85666 | 20784 ft | 399 kts | 40° |
| 2026-05-08 10:52 | 37.45780 | 10.87951 | 21266 ft | 402 kts | 40° |
| 2026-05-08 10:53 | 37.47905 | 10.90255 | 21729 ft | 404 kts | 40° |
| 2026-05-08 10:53 | 37.50046 | 10.92571 | 22174 ft | 407 kts | 40° |
| 2026-05-08 10:53 | 37.52202 | 10.94902 | 22600 ft | 410 kts | 40° |
| 2026-05-08 10:53 | 37.54374 | 10.97252 | 23017 ft | 412 kts | 40° |
| 2026-05-08 10:54 | 37.56552 | 10.99615 | 23416 ft | 415 kts | 40° |
| 2026-05-08 10:54 | 37.58745 | 11.01999 | 23813 ft | 417 kts | 40° |
| 2026-05-08 10:54 | 37.60948 | 11.04400 | 24193 ft | 420 kts | 40° |
| 2026-05-08 10:54 | 37.63166 | 11.06816 | 24563 ft | 422 kts | 40° |
| 2026-05-08 10:55 | 37.65396 | 11.09244 | 24935 ft | 424 kts | 40° |
| 2026-05-08 10:55 | 37.67640 | 11.11686 | 25291 ft | 427 kts | 40° |
| 2026-05-08 10:55 | 37.69894 | 11.14141 | 25629 ft | 429 kts | 40° |
| 2026-05-08 10:55 | 37.72160 | 11.16610 | 25983 ft | 431 kts | 40° |
| 2026-05-08 10:56 | 37.74432 | 11.19092 | 26314 ft | 433 kts | 40° |
| 2026-05-08 10:56 | 37.76719 | 11.21594 | 26642 ft | 436 kts | 40° |
| 2026-05-08 10:56 | 37.79013 | 11.24109 | 26967 ft | 438 kts | 41° |
| 2026-05-08 10:56 | 37.81317 | 11.26640 | 27277 ft | 440 kts | 41° |
| 2026-05-08 10:57 | 37.83633 | 11.29183 | 27596 ft | 442 kts | 40° |
| 2026-05-08 10:57 | 37.85959 | 11.31734 | 27891 ft | 444 kts | 40° |
| 2026-05-08 10:57 | 37.90651 | 11.36882 | 28473 ft | 448 kts | 41° |
| 2026-05-08 10:58 | 37.93008 | 11.39474 | 28751 ft | 450 kts | 41° |
| 2026-05-08 10:58 | 37.95374 | 11.42078 | 29023 ft | 452 kts | 41° |
| 2026-05-08 10:58 | 37.97750 | 11.44695 | 29290 ft | 454 kts | 41° |
| 2026-05-08 10:58 | 38.00136 | 11.47328 | 29545 ft | 455 kts | 41° |
| 2026-05-08 10:59 | 38.02530 | 11.49975 | 29816 ft | 457 kts | 41° |
| 2026-05-08 10:59 | 38.04932 | 11.52632 | 30081 ft | 459 kts | 41° |
| 2026-05-08 10:59 | 38.07345 | 11.55300 | 30351 ft | 461 kts | 41° |
| 2026-05-08 10:59 | 38.09764 | 11.57983 | 30641 ft | 462 kts | 41° |
| 2026-05-08 11:00 | 38.12177 | 11.60664 | 31007 ft | 460 kts | 41° |
| 2026-05-08 11:00 | 38.14585 | 11.63340 | 31357 ft | 460 kts | 41° |
| 2026-05-08 11:00 | 38.16990 | 11.66012 | 31695 ft | 459 kts | 41° |
| 2026-05-08 11:00 | 38.19392 | 11.68679 | 32026 ft | 458 kts | 41° |
| 2026-05-08 11:01 | 38.21791 | 11.71344 | 32341 ft | 458 kts | 41° |
| 2026-05-08 11:01 | 38.24187 | 11.74009 | 32667 ft | 457 kts | 41° |
| 2026-05-08 11:01 | 38.26574 | 11.76671 | 32968 ft | 456 kts | 41° |
| 2026-05-08 11:01 | 38.28960 | 11.79333 | 33281 ft | 456 kts | 41° |
| 2026-05-08 11:02 | 38.31337 | 11.81991 | 33569 ft | 455 kts | 41° |
| 2026-05-08 11:02 | 38.36093 | 11.87307 | 34144 ft | 454 kts | 41° |
| 2026-05-08 11:02 | 38.38463 | 11.89958 | 34422 ft | 453 kts | 41° |
| 2026-05-08 11:03 | 38.40831 | 11.92607 | 34694 ft | 453 kts | 41° |
| 2026-05-08 11:03 | 38.43200 | 11.95256 | 34961 ft | 452 kts | 41° |
| 2026-05-08 11:03 | 38.45560 | 11.97900 | 35222 ft | 452 kts | 41° |
| 2026-05-08 11:03 | 38.47914 | 12.00550 | 35479 ft | 451 kts | 41° |
| 2026-05-08 11:04 | 38.50268 | 12.03201 | 35734 ft | 451 kts | 41° |
| 2026-05-08 11:04 | 38.52619 | 12.05850 | 35988 ft | 450 kts | 41° |
| 2026-05-08 11:04 | 38.54965 | 12.08494 | 36223 ft | 450 kts | 41° |
| 2026-05-08 11:04 | 38.57311 | 12.11139 | 36441 ft | 449 kts | 41° |
| 2026-05-08 11:05 | 38.59658 | 12.13784 | 36646 ft | 449 kts | 41° |
| 2026-05-08 11:05 | 38.62003 | 12.16431 | 36836 ft | 449 kts | 41° |
| 2026-05-08 11:05 | 38.64342 | 12.19076 | 37017 ft | 449 kts | 41° |
| 2026-05-08 11:05 | 38.66683 | 12.21729 | 37178 ft | 449 kts | 41° |
| 2026-05-08 11:06 | 38.69020 | 12.24379 | 37369 ft | 449 kts | 41° |
| 2026-05-08 11:06 | 38.71360 | 12.27036 | 37517 ft | 449 kts | 41° |
| 2026-05-08 11:06 | 38.73699 | 12.29694 | 37669 ft | 449 kts | 41° |
| 2026-05-08 11:06 | 38.76037 | 12.32350 | 37816 ft | 449 kts | 41° |
| 2026-05-08 11:07 | 38.78375 | 12.35005 | 37961 ft | 449 kts | 41° |
| 2026-05-08 11:07 | 38.83055 | 12.40331 | 38009 ft | 450 kts | 41° |
| 2026-05-08 11:08 | 38.87734 | 12.45673 | 38009 ft | 450 kts | 41° |
| 2026-05-08 11:08 | 38.92510 | 12.50869 | 38009 ft | 450 kts | 39° |
| 2026-05-08 11:09 | 38.96546 | 12.55088 | 38009 ft | 450 kts | 39° |
| 2026-05-08 11:09 | 39.01392 | 12.60184 | 38009 ft | 450 kts | 39° |
| 2026-05-08 11:10 | 39.06207 | 12.65341 | 38009 ft | 450 kts | 40° |
| 2026-05-08 11:10 | 39.11001 | 12.70513 | 38009 ft | 450 kts | 40° |
| 2026-05-08 11:11 | 39.15802 | 12.75682 | 38009 ft | 450 kts | 39° |
| 2026-05-08 11:11 | 39.20608 | 12.80857 | 38009 ft | 450 kts | 40° |
| 2026-05-08 11:12 | 39.25411 | 12.86046 | 38009 ft | 450 kts | 40° |
| 2026-05-08 11:12 | 39.30206 | 12.91233 | 38009 ft | 450 kts | 40° |
| 2026-05-08 11:13 | 39.35004 | 12.96428 | 38009 ft | 450 kts | 40° |
| 2026-05-08 11:13 | 39.39792 | 13.01634 | 38009 ft | 450 kts | 40° |
| 2026-05-08 11:14 | 39.44583 | 13.06854 | 38009 ft | 450 kts | 40° |
| 2026-05-08 11:14 | 39.49372 | 13.12074 | 38009 ft | 450 kts | 40° |
| 2026-05-08 11:15 | 39.54160 | 13.17299 | 38009 ft | 450 kts | 40° |
| 2026-05-08 11:15 | 39.58940 | 13.22534 | 38009 ft | 450 kts | 40° |
| 2026-05-08 11:16 | 39.63725 | 13.27779 | 38009 ft | 450 kts | 40° |
| 2026-05-08 11:16 | 39.68503 | 13.33027 | 38009 ft | 450 kts | 40° |
| 2026-05-08 11:17 | 39.73276 | 13.38285 | 38009 ft | 450 kts | 40° |
| 2026-05-08 11:17 | 39.78050 | 13.43544 | 38009 ft | 450 kts | 40° |
| 2026-05-08 11:18 | 39.82818 | 13.48812 | 38009 ft | 450 kts | 40° |
| 2026-05-08 11:18 | 39.87588 | 13.54090 | 38009 ft | 450 kts | 40° |
| 2026-05-08 11:19 | 39.92355 | 13.59370 | 38009 ft | 450 kts | 40° |
| 2026-05-08 11:19 | 39.97117 | 13.64663 | 38009 ft | 450 kts | 40° |
| 2026-05-08 11:20 | 40.01878 | 13.69962 | 38009 ft | 450 kts | 40° |
| 2026-05-08 11:20 | 40.06641 | 13.75266 | 38009 ft | 450 kts | 40° |
| 2026-05-08 11:21 | 40.11397 | 13.80582 | 38009 ft | 450 kts | 40° |
| 2026-05-08 11:21 | 40.16149 | 13.85904 | 38009 ft | 450 kts | 40° |
| 2026-05-08 11:22 | 40.20902 | 13.91233 | 38009 ft | 450 kts | 40° |
| 2026-05-08 11:22 | 40.25653 | 13.96575 | 38009 ft | 450 kts | 40° |
| 2026-05-08 11:23 | 40.30396 | 14.01921 | 38009 ft | 450 kts | 40° |
| 2026-05-08 11:23 | 40.35142 | 14.07271 | 38009 ft | 450 kts | 40° |
| 2026-05-08 11:24 | 40.39887 | 14.12633 | 38009 ft | 450 kts | 40° |
| 2026-05-08 11:24 | 40.44625 | 14.18003 | 38009 ft | 450 kts | 40° |
| 2026-05-08 11:25 | 40.49362 | 14.23381 | 38009 ft | 450 kts | 40° |
| 2026-05-08 11:25 | 40.54092 | 14.28769 | 38009 ft | 450 kts | 40° |
| 2026-05-08 11:26 | 40.58995 | 14.33866 | 38009 ft | 450 kts | 30° |
| 2026-05-08 11:26 | 40.64584 | 14.37595 | 38009 ft | 450 kts | 26° |
| 2026-05-08 11:27 | 40.70212 | 14.41210 | 38009 ft | 450 kts | 26° |
| 2026-05-08 11:27 | 40.75832 | 14.44839 | 38009 ft | 450 kts | 26° |
| 2026-05-08 11:28 | 40.81452 | 14.48485 | 38009 ft | 450 kts | 26° |
| 2026-05-08 11:28 | 40.87068 | 14.52138 | 38009 ft | 450 kts | 26° |
| 2026-05-08 11:29 | 40.92691 | 14.55786 | 38009 ft | 450 kts | 26° |
| 2026-05-08 11:29 | 40.98312 | 14.59452 | 38009 ft | 451 kts | 26° |
| 2026-05-08 11:30 | 41.03952 | 14.63143 | 38009 ft | 452 kts | 26° |
| 2026-05-08 11:30 | 41.09594 | 14.66826 | 38008 ft | 452 kts | 26° |
| 2026-05-08 11:31 | 41.15234 | 14.70516 | 38009 ft | 452 kts | 26° |
| 2026-05-08 11:31 | 41.20861 | 14.74211 | 38008 ft | 451 kts | 26° |
| 2026-05-08 11:32 | 41.26488 | 14.77918 | 38009 ft | 452 kts | 26° |
| 2026-05-08 11:32 | 41.32119 | 14.81648 | 38009 ft | 452 kts | 26° |
| 2026-05-08 11:33 | 41.37772 | 14.85371 | 38009 ft | 454 kts | 26° |
| 2026-05-08 11:33 | 41.43444 | 14.89090 | 38009 ft | 455 kts | 26° |
| 2026-05-08 11:34 | 41.49121 | 14.92837 | 38009 ft | 455 kts | 26° |
| 2026-05-08 11:34 | 41.54773 | 14.96587 | 38009 ft | 452 kts | 26° |
| 2026-05-08 11:35 | 41.60407 | 15.00325 | 38010 ft | 452 kts | 26° |
| 2026-05-08 11:35 | 41.66042 | 15.04061 | 38009 ft | 451 kts | 26° |
| 2026-05-08 11:36 | 41.71657 | 15.07802 | 38009 ft | 451 kts | 26° |
| 2026-05-08 11:36 | 41.77270 | 15.11554 | 38009 ft | 451 kts | 26° |
| 2026-05-08 11:37 | 41.82879 | 15.15308 | 38009 ft | 450 kts | 26° |
| 2026-05-08 11:37 | 41.88490 | 15.19066 | 38009 ft | 450 kts | 26° |
| 2026-05-08 11:38 | 41.94088 | 15.22821 | 38009 ft | 450 kts | 26° |
| 2026-05-08 11:38 | 41.99687 | 15.26581 | 38009 ft | 450 kts | 26° |
| 2026-05-08 11:39 | 42.05278 | 15.30356 | 38009 ft | 449 kts | 26° |
| 2026-05-08 11:39 | 42.10869 | 15.34132 | 38009 ft | 449 kts | 26° |
| 2026-05-08 11:40 | 42.16461 | 15.37906 | 38009 ft | 449 kts | 26° |
| 2026-05-08 11:40 | 42.22049 | 15.41693 | 38009 ft | 449 kts | 26° |
| 2026-05-08 11:41 | 42.27632 | 15.45495 | 38009 ft | 450 kts | 26° |
| 2026-05-08 11:41 | 42.33221 | 15.49296 | 38009 ft | 450 kts | 26° |
| 2026-05-08 11:42 | 42.38804 | 15.53101 | 38009 ft | 450 kts | 26° |
| 2026-05-08 11:42 | 42.44386 | 15.56923 | 38009 ft | 450 kts | 26° |
| 2026-05-08 11:43 | 42.49968 | 15.60755 | 38009 ft | 450 kts | 26° |
| 2026-05-08 11:43 | 42.55545 | 15.64587 | 38009 ft | 450 kts | 26° |
| 2026-05-08 11:44 | 42.61126 | 15.68423 | 38009 ft | 450 kts | 26° |
| 2026-05-08 11:44 | 42.66702 | 15.72271 | 38009 ft | 450 kts | 27° |
| 2026-05-08 11:45 | 42.72281 | 15.76122 | 38009 ft | 450 kts | 26° |
| 2026-05-08 11:45 | 42.77859 | 15.79986 | 38009 ft | 450 kts | 27° |
| 2026-05-08 11:46 | 42.83431 | 15.83863 | 38009 ft | 450 kts | 27° |
| 2026-05-08 11:46 | 42.89000 | 15.87740 | 38009 ft | 450 kts | 27° |
| 2026-05-08 11:47 | 42.94576 | 15.91622 | 38009 ft | 450 kts | 27° |
| 2026-05-08 11:47 | 43.00146 | 15.95509 | 38009 ft | 450 kts | 27° |
| 2026-05-08 11:48 | 43.05716 | 15.99410 | 38009 ft | 450 kts | 27° |
| 2026-05-08 11:48 | 43.10340 | 16.02655 | 38009 ft | 450 kts | 27° |
| 2026-05-08 11:49 | 43.15907 | 16.06574 | 38009 ft | 450 kts | 27° |
| 2026-05-08 11:49 | 43.21468 | 16.10492 | 38009 ft | 450 kts | 27° |
| 2026-05-08 11:50 | 43.27035 | 16.14411 | 38009 ft | 450 kts | 27° |
| 2026-05-08 11:50 | 43.32598 | 16.18344 | 38009 ft | 450 kts | 27° |
| 2026-05-08 11:51 | 43.38159 | 16.22286 | 38009 ft | 450 kts | 27° |
| 2026-05-08 11:51 | 43.43724 | 16.26237 | 38009 ft | 450 kts | 27° |
| 2026-05-08 11:52 | 43.49283 | 16.30200 | 38009 ft | 450 kts | 27° |
| 2026-05-08 11:52 | 43.54919 | 16.33950 | 38009 ft | 450 kts | 24° |
| 2026-05-08 11:53 | 43.60651 | 16.37425 | 38010 ft | 451 kts | 23° |
| 2026-05-08 11:53 | 43.66410 | 16.40934 | 38009 ft | 452 kts | 24° |
| 2026-05-08 11:54 | 43.72145 | 16.44522 | 38009 ft | 453 kts | 24° |
| 2026-05-08 11:54 | 43.77887 | 16.48158 | 38009 ft | 455 kts | 24° |
| 2026-05-08 11:55 | 43.83655 | 16.51819 | 38009 ft | 454 kts | 24° |
| 2026-05-08 11:55 | 43.89389 | 16.55462 | 38009 ft | 455 kts | 24° |
| 2026-05-08 11:56 | 43.95165 | 16.59126 | 38009 ft | 458 kts | 24° |
| 2026-05-08 11:56 | 44.00959 | 16.62800 | 38009 ft | 456 kts | 24° |
| 2026-05-08 11:57 | 44.06717 | 16.66472 | 38009 ft | 455 kts | 24° |
| 2026-05-08 11:57 | 44.12486 | 16.70160 | 38009 ft | 458 kts | 24° |
| 2026-05-08 11:58 | 44.18271 | 16.73869 | 38009 ft | 457 kts | 24° |
| 2026-05-08 11:58 | 44.24043 | 16.77572 | 38008 ft | 457 kts | 24° |
| 2026-05-08 11:59 | 44.32702 | 16.83163 | 38009 ft | 455 kts | 25° |
| 2026-05-08 11:59 | 44.38364 | 16.87064 | 38009 ft | 453 kts | 26° |
| 2026-05-08 12:00 | 44.44006 | 16.91053 | 38010 ft | 456 kts | 26° |
| 2026-05-08 12:00 | 44.49682 | 16.95032 | 38009 ft | 455 kts | 26° |
| 2026-05-08 12:01 | 44.55356 | 16.98966 | 38009 ft | 456 kts | 26° |
| 2026-05-08 12:01 | 44.61035 | 17.02917 | 38008 ft | 455 kts | 26° |
| 2026-05-08 12:02 | 44.66697 | 17.06878 | 38008 ft | 454 kts | 26° |
| 2026-05-08 12:02 | 44.72346 | 17.10841 | 38009 ft | 453 kts | 26° |
| 2026-05-08 12:03 | 44.77982 | 17.14798 | 38009 ft | 452 kts | 26° |
| 2026-05-08 12:03 | 44.83607 | 17.18747 | 38009 ft | 451 kts | 26° |
| 2026-05-08 12:04 | 44.89220 | 17.22699 | 38009 ft | 451 kts | 26° |
| 2026-05-08 12:04 | 44.94833 | 17.26672 | 38009 ft | 451 kts | 26° |
| 2026-05-08 12:05 | 45.00440 | 17.30641 | 38009 ft | 450 kts | 26° |
| 2026-05-08 12:05 | 45.06039 | 17.34613 | 38009 ft | 450 kts | 26° |
| 2026-05-08 12:06 | 45.11634 | 17.38600 | 38009 ft | 450 kts | 26° |
| 2026-05-08 12:06 | 45.17253 | 17.42529 | 38009 ft | 450 kts | 25° |
| 2026-05-08 12:07 | 45.22933 | 17.46284 | 38009 ft | 450 kts | 24° |
| 2026-05-08 12:07 | 45.28621 | 17.50018 | 38009 ft | 451 kts | 25° |
| 2026-05-08 12:08 | 45.34315 | 17.53824 | 38010 ft | 452 kts | 25° |
| 2026-05-08 12:08 | 45.39994 | 17.57655 | 38009 ft | 451 kts | 25° |
| 2026-05-08 12:09 | 45.45669 | 17.61485 | 38009 ft | 451 kts | 25° |
| 2026-05-08 12:09 | 45.51353 | 17.65329 | 38009 ft | 454 kts | 25° |
| 2026-05-08 12:10 | 45.57057 | 17.69183 | 38009 ft | 452 kts | 25° |
| 2026-05-08 12:10 | 45.62737 | 17.73028 | 38009 ft | 451 kts | 25° |
| 2026-05-08 12:11 | 45.68405 | 17.76876 | 38009 ft | 451 kts | 25° |
| 2026-05-08 12:11 | 45.74063 | 17.80718 | 38009 ft | 450 kts | 25° |
| 2026-05-08 12:12 | 45.79720 | 17.84573 | 38009 ft | 450 kts | 25° |
| 2026-05-08 12:12 | 45.85372 | 17.88449 | 38009 ft | 450 kts | 25° |
| 2026-05-08 12:13 | 45.91023 | 17.92329 | 38009 ft | 450 kts | 25° |
| 2026-05-08 12:13 | 45.96681 | 17.96211 | 38009 ft | 450 kts | 25° |
| 2026-05-08 12:14 | 46.02332 | 18.00093 | 38280 ft | 450 kts | 25° |
| 2026-05-08 12:14 | 46.05154 | 18.02040 | 38444 ft | 450 kts | 25° |
| 2026-05-08 12:14 | 46.07977 | 18.03992 | 38583 ft | 450 kts | 25° |
| 2026-05-08 12:15 | 46.10803 | 18.05946 | 38714 ft | 450 kts | 25° |
| 2026-05-08 12:15 | 46.13631 | 18.07895 | 38843 ft | 450 kts | 25° |
| 2026-05-08 12:15 | 46.16465 | 18.09802 | 38980 ft | 450 kts | 24° |
| 2026-05-08 12:15 | 46.19318 | 18.11677 | 39015 ft | 451 kts | 24° |
| 2026-05-08 12:16 | 46.25035 | 18.15391 | 39015 ft | 450 kts | 24° |
| 2026-05-08 12:16 | 46.30743 | 18.19125 | 39004 ft | 450 kts | 24° |
| 2026-05-08 12:17 | 46.36433 | 18.22896 | 39006 ft | 450 kts | 24° |
| 2026-05-08 12:17 | 46.42129 | 18.26687 | 39005 ft | 451 kts | 24° |
| 2026-05-08 12:18 | 46.47826 | 18.30480 | 39025 ft | 451 kts | 24° |
| 2026-05-08 12:18 | 46.53535 | 18.34288 | 39028 ft | 451 kts | 24° |
| 2026-05-08 12:19 | 46.59241 | 18.38098 | 39030 ft | 452 kts | 24° |
| 2026-05-08 12:19 | 46.64952 | 18.41919 | 39032 ft | 452 kts | 24° |
| 2026-05-08 12:20 | 46.70656 | 18.45760 | 39031 ft | 451 kts | 25° |
| 2026-05-08 12:20 | 46.76357 | 18.49600 | 39030 ft | 451 kts | 24° |
| 2026-05-08 12:21 | 46.82063 | 18.53444 | 39031 ft | 452 kts | 24° |
| 2026-05-08 12:21 | 46.87765 | 18.57292 | 39031 ft | 452 kts | 24° |
| 2026-05-08 12:22 | 46.93473 | 18.61158 | 39031 ft | 452 kts | 25° |
| 2026-05-08 12:22 | 46.99174 | 18.65039 | 39032 ft | 452 kts | 25° |
| 2026-05-08 12:23 | 47.04872 | 18.68925 | 39032 ft | 452 kts | 25° |
| 2026-05-08 12:23 | 47.10575 | 18.72812 | 39032 ft | 452 kts | 25° |
| 2026-05-08 12:24 | 47.16273 | 18.76717 | 39032 ft | 452 kts | 25° |
| 2026-05-08 12:24 | 47.21967 | 18.80633 | 39031 ft | 451 kts | 25° |
| 2026-05-08 12:25 | 47.27659 | 18.84540 | 39031 ft | 452 kts | 25° |
| 2026-05-08 12:25 | 47.33352 | 18.88456 | 39031 ft | 452 kts | 25° |
| 2026-05-08 12:26 | 47.39045 | 18.92389 | 39031 ft | 452 kts | 25° |
| 2026-05-08 12:26 | 47.44732 | 18.96332 | 39030 ft | 452 kts | 25° |
| 2026-05-08 12:27 | 47.50465 | 19.00152 | 39029 ft | 451 kts | 18° |
| 2026-05-08 12:27 | 47.55462 | 19.02367 | 39030 ft | 451 kts | 16° |
| 2026-05-08 12:28 | 47.61491 | 19.04993 | 39031 ft | 452 kts | 16° |
| 2026-05-08 12:28 | 47.67518 | 19.07637 | 39032 ft | 451 kts | 16° |
| 2026-05-08 12:29 | 47.73537 | 19.10287 | 39031 ft | 451 kts | 16° |
| 2026-05-08 12:29 | 47.79556 | 19.12936 | 39031 ft | 451 kts | 16° |
| 2026-05-08 12:30 | 47.85577 | 19.15593 | 39017 ft | 451 kts | 16° |
| 2026-05-08 12:30 | 47.91599 | 19.18247 | 39027 ft | 452 kts | 16° |
| 2026-05-08 12:31 | 47.97623 | 19.20914 | 39029 ft | 452 kts | 16° |
| 2026-05-08 12:31 | 48.03649 | 19.23594 | 39030 ft | 452 kts | 16° |
| 2026-05-08 12:32 | 48.09749 | 19.25820 | 39032 ft | 451 kts | 10° |
| 2026-05-08 12:32 | 48.15926 | 19.27525 | 39032 ft | 452 kts | 10° |
| 2026-05-08 12:33 | 48.22107 | 19.29254 | 39029 ft | 452 kts | 10° |
| 2026-05-08 12:33 | 48.28287 | 19.30996 | 39026 ft | 452 kts | 10° |
| 2026-05-08 12:34 | 48.34477 | 19.32734 | 39027 ft | 453 kts | 10° |
| 2026-05-08 12:34 | 48.40674 | 19.34466 | 39026 ft | 453 kts | 10° |
| 2026-05-08 12:35 | 48.46877 | 19.36211 | 39014 ft | 454 kts | 10° |
| 2026-05-08 12:35 | 48.53093 | 19.37976 | 39028 ft | 454 kts | 10° |
| 2026-05-08 12:36 | 48.59302 | 19.39740 | 39030 ft | 454 kts | 10° |
| 2026-05-08 12:36 | 48.62416 | 19.40628 | 38669 ft | 457 kts | 10° |
| 2026-05-08 12:36 | 48.65565 | 19.41527 | 37958 ft | 461 kts | 10° |
| 2026-05-08 12:37 | 48.68731 | 19.42430 | 37088 ft | 463 kts | 10° |
| 2026-05-08 12:37 | 48.71887 | 19.43331 | 36209 ft | 462 kts | 10° |
| 2026-05-08 12:37 | 48.75060 | 19.44239 | 35333 ft | 464 kts | 10° |
| 2026-05-08 12:37 | 48.78217 | 19.45143 | 34454 ft | 459 kts | 10° |
| 2026-05-08 12:38 | 48.81321 | 19.46032 | 33584 ft | 450 kts | 10° |
| 2026-05-08 12:38 | 48.84367 | 19.46905 | 32705 ft | 441 kts | 10° |
| 2026-05-08 12:38 | 48.87350 | 19.47758 | 31826 ft | 433 kts | 10° |
| 2026-05-08 12:38 | 48.90282 | 19.48597 | 30949 ft | 425 kts | 10° |
| 2026-05-08 12:39 | 48.93162 | 19.49428 | 30071 ft | 419 kts | 10° |
| 2026-05-08 12:39 | 48.96005 | 19.50248 | 29189 ft | 412 kts | 10° |
| 2026-05-08 12:39 | 48.98801 | 19.51051 | 28320 ft | 405 kts | 10° |
| 2026-05-08 12:39 | 49.01548 | 19.51840 | 27443 ft | 399 kts | 10° |
| 2026-05-08 12:40 | 49.04257 | 19.52620 | 26566 ft | 393 kts | 10° |
| 2026-05-08 12:40 | 49.06929 | 19.53391 | 25685 ft | 388 kts | 10° |
| 2026-05-08 12:40 | 49.09566 | 19.54153 | 24813 ft | 383 kts | 10° |
| 2026-05-08 12:40 | 49.12168 | 19.54908 | 23935 ft | 378 kts | 10° |
| 2026-05-08 12:41 | 49.14738 | 19.55657 | 23056 ft | 373 kts | 10° |
| 2026-05-08 12:41 | 49.17268 | 19.56393 | 22176 ft | 367 kts | 10° |
| 2026-05-08 12:41 | 49.19761 | 19.57122 | 21298 ft | 362 kts | 10° |
| 2026-05-08 12:41 | 49.22219 | 19.57840 | 20418 ft | 358 kts | 10° |
| 2026-05-08 12:42 | 49.24651 | 19.58547 | 19543 ft | 353 kts | 10° |
| 2026-05-08 12:42 | 49.27050 | 19.59244 | 18663 ft | 349 kts | 10° |
| 2026-05-08 12:42 | 49.29417 | 19.59934 | 17785 ft | 344 kts | 10° |
| 2026-05-08 12:42 | 49.31751 | 19.60616 | 16906 ft | 340 kts | 10° |
| 2026-05-08 12:43 | 49.34065 | 19.61296 | 16026 ft | 336 kts | 10° |
| 2026-05-08 12:43 | 49.36346 | 19.61969 | 15147 ft | 332 kts | 11° |
| 2026-05-08 12:43 | 49.38608 | 19.62636 | 14270 ft | 329 kts | 10° |
| 2026-05-08 12:43 | 49.40843 | 19.63293 | 13386 ft | 326 kts | 10° |
| 2026-05-08 12:44 | 49.43036 | 19.64004 | 12684 ft | 317 kts | 16° |
| 2026-05-08 12:44 | 49.45058 | 19.65249 | 12231 ft | 312 kts | 28° |
| 2026-05-08 12:44 | 49.46861 | 19.67073 | 11784 ft | 310 kts | 39° |
| 2026-05-08 12:44 | 49.48404 | 19.69375 | 11328 ft | 309 kts | 46° |
| 2026-05-08 12:45 | 49.49870 | 19.71768 | 11031 ft | 306 kts | 46° |
| 2026-05-08 12:45 | 49.51333 | 19.74148 | 11008 ft | 307 kts | 46° |
| 2026-05-08 12:45 | 49.52802 | 19.76529 | 11008 ft | 308 kts | 46° |
| 2026-05-08 12:45 | 49.54275 | 19.78923 | 11007 ft | 307 kts | 46° |
| 2026-05-08 12:46 | 49.55748 | 19.81319 | 11008 ft | 308 kts | 46° |
| 2026-05-08 12:46 | 49.57215 | 19.83715 | 11009 ft | 307 kts | 46° |
| 2026-05-08 12:46 | 49.58683 | 19.86116 | 11008 ft | 307 kts | 46° |
| 2026-05-08 12:46 | 49.60144 | 19.88507 | 11008 ft | 307 kts | 46° |
| 2026-05-08 12:47 | 49.61603 | 19.90899 | 11009 ft | 306 kts | 46° |
| 2026-05-08 12:47 | 49.63063 | 19.93295 | 11010 ft | 307 kts | 46° |
| 2026-05-08 12:47 | 49.64524 | 19.95692 | 11008 ft | 307 kts | 46° |
| 2026-05-08 12:47 | 49.65986 | 19.98094 | 11009 ft | 308 kts | 46° |
| 2026-05-08 12:48 | 49.67451 | 20.00504 | 11009 ft | 307 kts | 46° |
| 2026-05-08 12:48 | 49.68916 | 20.02909 | 11009 ft | 307 kts | 46° |
| 2026-05-08 12:48 | 49.70378 | 20.05306 | 11007 ft | 306 kts | 46° |
| 2026-05-08 12:48 | 49.71840 | 20.07708 | 11008 ft | 307 kts | 46° |
| 2026-05-08 12:49 | 49.73299 | 20.10111 | 11009 ft | 307 kts | 46° |
| 2026-05-08 12:49 | 49.74755 | 20.12512 | 10650 ft | 306 kts | 46° |
| 2026-05-08 12:49 | 49.76356 | 20.14636 | 9881 ft | 299 kts | 28° |
| 2026-05-08 12:49 | 49.78271 | 20.15652 | 9385 ft | 285 kts | 5° |
| 2026-05-08 12:50 | 49.80228 | 20.15453 | 9260 ft | 285 kts | 343° |
| 2026-05-08 12:50 | 49.82008 | 20.14142 | 9139 ft | 285 kts | 323° |
| 2026-05-08 12:50 | 49.83598 | 20.12301 | 9016 ft | 285 kts | 322° |
| 2026-05-08 12:50 | 49.85178 | 20.10443 | 8914 ft | 285 kts | 322° |
| 2026-05-08 12:51 | 49.86610 | 20.08752 | 8769 ft | 285 kts | 322° |
| 2026-05-08 12:51 | 49.89744 | 20.05038 | 8347 ft | 283 kts | 322° |
| 2026-05-08 12:51 | 49.91317 | 20.03216 | 8132 ft | 282 kts | 327° |
| 2026-05-08 12:52 | 49.93077 | 20.01895 | 7920 ft | 283 kts | 341° |
| 2026-05-08 12:52 | 49.96809 | 20.00721 | 7257 ft | 258 kts | 349° |
| 2026-05-08 12:52 | 49.98459 | 20.00245 | 7054 ft | 244 kts | 350° |
| 2026-05-08 12:53 | 50.00140 | 20.00323 | 6928 ft | 244 kts | 19° |
| 2026-05-08 12:53 | 50.01561 | 20.01711 | 6800 ft | 244 kts | 50° |
| 2026-05-08 12:53 | 50.02319 | 20.04046 | 6679 ft | 244 kts | 78° |
| 2026-05-08 12:53 | 50.02662 | 20.06639 | 6572 ft | 245 kts | 78° |
| 2026-05-08 12:54 | 50.03005 | 20.09243 | 6499 ft | 246 kts | 78° |
| 2026-05-08 12:54 | 50.03353 | 20.11849 | 6360 ft | 246 kts | 78° |
| 2026-05-08 12:54 | 50.03703 | 20.14435 | 6249 ft | 244 kts | 78° |
| 2026-05-08 12:54 | 50.04042 | 20.16946 | 6068 ft | 226 kts | 78° |
| 2026-05-08 12:55 | 50.04349 | 20.19221 | 5741 ft | 209 kts | 78° |
| 2026-05-08 12:55 | 50.04780 | 20.21356 | 5584 ft | 208 kts | 60° |
| 2026-05-08 12:55 | 50.05762 | 20.22982 | 5461 ft | 208 kts | 32° |
| 2026-05-08 12:55 | 50.07076 | 20.23707 | 5374 ft | 197 kts | 6° |
| 2026-05-08 12:56 | 50.08424 | 20.23510 | 5314 ft | 195 kts | 347° |
| 2026-05-08 12:56 | 50.09749 | 20.23067 | 5219 ft | 194 kts | 347° |
| 2026-05-08 12:56 | 50.11068 | 20.22623 | 5097 ft | 194 kts | 345° |
| 2026-05-08 12:56 | 50.12235 | 20.21617 | 4983 ft | 193 kts | 317° |
| 2026-05-08 12:57 | 50.12984 | 20.19908 | 4898 ft | 192 kts | 291° |
| 2026-05-08 12:57 | 50.13165 | 20.17868 | 4893 ft | 192 kts | 265° |
| 2026-05-08 12:57 | 50.12905 | 20.15830 | 4898 ft | 192 kts | 258° |
| 2026-05-08 12:57 | 50.12623 | 20.13801 | 4900 ft | 190 kts | 258° |
| 2026-05-08 12:58 | 50.12362 | 20.11896 | 4780 ft | 171 kts | 258° |
| 2026-05-08 12:58 | 50.12120 | 20.10119 | 4593 ft | 166 kts | 258° |
| 2026-05-08 12:58 | 50.11881 | 20.08369 | 4393 ft | 165 kts | 258° |
| 2026-05-08 12:58 | 50.11644 | 20.06628 | 4173 ft | 164 kts | 258° |
| 2026-05-08 12:59 | 50.11408 | 20.04896 | 3961 ft | 163 kts | 258° |
| 2026-05-08 12:59 | 50.11172 | 20.03168 | 3743 ft | 163 kts | 258° |
| 2026-05-08 12:59 | 50.10937 | 20.01447 | 3537 ft | 162 kts | 257° |
| 2026-05-08 12:59 | 50.10702 | 19.99731 | 3319 ft | 162 kts | 258° |
| 2026-05-08 13:00 | 50.10467 | 19.98016 | 3109 ft | 161 kts | 258° |
| 2026-05-08 13:00 | 50.10235 | 19.96322 | 2884 ft | 156 kts | 258° |
| 2026-05-08 13:00 | 50.10011 | 19.94691 | 2680 ft | 153 kts | 258° |
| 2026-05-08 13:00 | 50.09788 | 19.93071 | 2486 ft | 152 kts | 258° |
| 2026-05-08 13:01 | 50.09567 | 19.91464 | 2296 ft | 152 kts | 258° |
| 2026-05-08 13:01 | 50.09347 | 19.89865 | 2078 ft | 151 kts | 258° |
| 2026-05-08 13:01 | 50.09129 | 19.88284 | 1873 ft | 148 kts | 258° |
| 2026-05-08 13:01 | 50.08914 | 19.86731 | 1686 ft | 146 kts | 258° |
| 2026-05-08 13:02 | 50.08701 | 19.85189 | 1481 ft | 145 kts | 258° |
| 2026-05-08 13:02 | 50.08490 | 19.83658 | 1303 ft | 144 kts | 258° |
| 2026-05-08 13:02 | 50.08279 | 19.82135 | 1109 ft | 144 kts | 258° |
| 2026-05-08 13:02 | 50.08067 | 19.80610 | 921 ft | 144 kts | 258° |
| 2026-05-08 13:03 | 50.07859 | 19.79114 | 802 ft | 132 kts | 257° |
| 2026-05-08 13:03 | 50.07757 | 19.78387 | 801 ft | 35 kts | 258° |
| 2026-05-08 13:03 | 50.07714 | 19.78126 | 799 ft | 17 kts | 231° |
| 2026-05-08 13:03 | 50.07609 | 19.78090 | 800 ft | 16 kts | 181° |
| 2026-05-08 13:04 | 50.07505 | 19.78093 | 800 ft | 14 kts | 162° |
| 2026-05-08 13:04 | 50.07482 | 19.78218 | 800 ft | 9 kts | 83° |
| 2026-05-08 13:04 | 50.07483 | 19.78228 | 800 ft | 0 kts | 82° |
| 2026-05-08 13:04 | 50.07484 | 19.78234 | 800 ft | 1 kts | 81° |
| 2026-05-08 13:05 | 50.07487 | 19.78259 | 800 ft | 3 kts | 77° |
| 2026-05-08 13:05 | 50.07493 | 19.78295 | 800 ft | 3 kts | 76° |
| 2026-05-08 13:05 | 50.07494 | 19.78296 | 800 ft | 0 kts | 76° |
| 2026-05-08 13:05 | 50.07494 | 19.78302 | 800 ft | 1 kts | 76° |
| 2026-05-08 13:06 | 50.07495 | 19.78308 | 800 ft | 0 kts | 77° |
| 2026-05-08 13:06 | 50.07495 | 19.78309 | 800 ft | 0 kts | 77° |
| 2026-05-08 13:06 | 50.07497 | 19.78323 | 800 ft | 5 kts | 77° |
| 2026-05-08 13:06 | 50.07512 | 19.78430 | 800 ft | 15 kts | 78° |
| 2026-05-08 13:07 | 50.07540 | 19.78630 | 800 ft | 21 kts | 77° |
| 2026-05-08 13:07 | 50.07572 | 19.78861 | 800 ft | 23 kts | 78° |
| 2026-05-08 13:07 | 50.07595 | 19.79028 | 800 ft | 24 kts | 77° |
| 2026-05-08 13:07 | 50.07632 | 19.79289 | 800 ft | 26 kts | 78° |
| 2026-05-08 13:08 | 50.07663 | 19.79512 | 800 ft | 18 kts | 78° |
| 2026-05-08 13:08 | 50.07656 | 19.79688 | 800 ft | 15 kts | 139° |
| 2026-05-08 13:08 | 50.07563 | 19.79728 | 800 ft | 15 kts | 163° |
| 2026-05-08 13:08 | 50.07500 | 19.79726 | 800 ft | 8 kts | 227° |
| 2026-05-08 13:09 | 50.07493 | 19.79702 | 800 ft | 2 kts | 250° |
| 2026-05-08 13:09 | 50.07490 | 19.79688 | 800 ft | 2 kts | 250° |
| 2026-05-08 13:09 | 50.07487 | 19.79673 | 800 ft | 1 kts | 254° |